« Back
NWS Peachtree City, Ga » Text Product » AHN Terminal Aerodrome Forecast


Printer-friendly Version
Current Version              Previous Versions:   1  2  3  4  5  6  7  8  9  

Terminal Aerodrome Forecast

717
FTAK31 PAJN 220500
TAFAHN
TAF
PAHN 220520Z 2206/2306 30005KT P6SM SCT070
     FM222100 13007KT P6SM FEW025 SCT070
      AMD LTD TO CLD VIS AND WIND=

USA.gov is the U.S. government's official web portal to all federal, state and local government web resources and services.